sensor_id;sensor_type;location;lat;lon;timestamp;P1;durP1;ratioP1;P2;durP2;ratioP2
11453;SDS011;5783;55.174;61.310;2023-06-14T00:00:53;2.67;;;2.30;;
11453;SDS011;5783;55.174;61.310;2023-06-14T00:03:22;2.40;;;2.20;;
11453;SDS011;5783;55.174;61.310;2023-06-14T00:05:52;3.10;;;2.43;;
11453;SDS011;5783;55.174;61.310;2023-06-14T00:08:21;2.60;;;2.37;;
11453;SDS011;5783;55.174;61.310;2023-06-14T00:10:51;3.30;;;2.40;;
11453;SDS011;5783;55.174;61.310;2023-06-14T00:13:21;3.43;;;2.30;;
11453;SDS011;5783;55.174;61.310;2023-06-14T00:15:50;2.93;;;2.23;;
11453;SDS011;5783;55.174;61.310;2023-06-14T00:18:21;2.33;;;2.13;;
11453;SDS011;5783;55.174;61.310;2023-06-14T00:20:52;2.47;;;2.27;;
11453;SDS011;5783;55.174;61.310;2023-06-14T00:23:21;3.07;;;2.30;;
11453;SDS011;5783;55.174;61.310;2023-06-14T00:25:51;2.27;;;2.07;;
11453;SDS011;5783;55.174;61.310;2023-06-14T00:28:20;4.23;;;2.47;;
11453;SDS011;5783;55.174;61.310;2023-06-14T00:30:49;2.40;;;2.20;;
11453;SDS011;5783;55.174;61.310;2023-06-14T00:33:19;3.50;;;2.27;;
11453;SDS011;5783;55.174;61.310;2023-06-14T00:35:48;2.23;;;2.03;;
11453;SDS011;5783;55.174;61.310;2023-06-14T00:38:19;2.97;;;2.30;;
11453;SDS011;5783;55.174;61.310;2023-06-14T00:40:48;2.87;;;2.47;;
11453;SDS011;5783;55.174;61.310;2023-06-14T00:43:17;3.20;;;2.30;;
11453;SDS011;5783;55.174;61.310;2023-06-14T00:45:46;2.87;;;2.13;;
11453;SDS011;5783;55.174;61.310;2023-06-14T00:48:17;3.53;;;2.13;;
11453;SDS011;5783;55.174;61.310;2023-06-14T00:50:47;3.17;;;2.40;;
11453;SDS011;5783;55.174;61.310;2023-06-14T00:53:18;2.10;;;1.90;;
11453;SDS011;5783;55.174;61.310;2023-06-14T00:55:48;2.90;;;2.30;;
11453;SDS011;5783;55.174;61.310;2023-06-14T00:58:18;3.87;;;2.50;;
11453;SDS011;5783;55.174;61.310;2023-06-14T01:00:47;3.63;;;2.20;;
11453;SDS011;5783;55.174;61.310;2023-06-14T01:03:17;2.37;;;2.13;;
11453;SDS011;5783;55.174;61.310;2023-06-14T01:05:49;2.27;;;2.07;;
11453;SDS011;5783;55.174;61.310;2023-06-14T01:11:31;2.57;;;2.03;;
11453;SDS011;5783;55.174;61.310;2023-06-14T01:14:01;2.93;;;2.50;;
11453;SDS011;5783;55.174;61.310;2023-06-14T01:16:31;3.50;;;2.10;;
11453;SDS011;5783;55.174;61.310;2023-06-14T01:19:02;2.33;;;2.13;;
11453;SDS011;5783;55.174;61.310;2023-06-14T01:21:32;2.90;;;2.40;;
11453;SDS011;5783;55.174;61.310;2023-06-14T01:24:03;2.40;;;2.20;;
11453;SDS011;5783;55.174;61.310;2023-06-14T01:26:33;2.90;;;2.10;;
11453;SDS011;5783;55.174;61.310;2023-06-14T01:29:03;2.60;;;2.40;;
11453;SDS011;5783;55.174;61.310;2023-06-14T01:31:33;2.47;;;2.10;;
11453;SDS011;5783;55.174;61.310;2023-06-14T01:34:05;3.00;;;2.10;;
11453;SDS011;5783;55.174;61.310;2023-06-14T01:36:35;2.67;;;2.30;;
11453;SDS011;5783;55.174;61.310;2023-06-14T01:39:07;2.40;;;2.20;;
11453;SDS011;5783;55.174;61.310;2023-06-14T01:41:38;2.90;;;2.20;;
11453;SDS011;5783;55.174;61.310;2023-06-14T01:44:08;4.10;;;2.20;;
11453;SDS011;5783;55.174;61.310;2023-06-14T01:46:38;2.17;;;1.97;;
11453;SDS011;5783;55.174;61.310;2023-06-14T01:49:08;2.37;;;2.17;;
11453;SDS011;5783;55.174;61.310;2023-06-14T01:51:38;2.20;;;2.00;;
11453;SDS011;5783;55.174;61.310;2023-06-14T01:54:07;2.77;;;2.17;;
11453;SDS011;5783;55.174;61.310;2023-06-14T01:56:36;2.57;;;2.27;;
11453;SDS011;5783;55.174;61.310;2023-06-14T01:59:05;2.63;;;2.23;;
11453;SDS011;5783;55.174;61.310;2023-06-14T02:01:35;2.70;;;2.10;;
11453;SDS011;5783;55.174;61.310;2023-06-14T02:04:04;2.20;;;2.00;;
11453;SDS011;5783;55.174;61.310;2023-06-14T02:06:33;3.43;;;2.40;;
11453;SDS011;5783;55.174;61.310;2023-06-14T02:09:02;2.80;;;2.17;;
11453;SDS011;5783;55.174;61.310;2023-06-14T02:11:31;2.83;;;2.30;;
11453;SDS011;5783;55.174;61.310;2023-06-14T02:14:01;3.43;;;2.40;;
11453;SDS011;5783;55.174;61.310;2023-06-14T02:16:30;2.60;;;2.20;;
11453;SDS011;5783;55.174;61.310;2023-06-14T02:19:01;2.67;;;2.17;;
11453;SDS011;5783;55.174;61.310;2023-06-14T02:21:31;3.03;;;2.23;;
11453;SDS011;5783;55.174;61.310;2023-06-14T02:24:00;2.33;;;2.13;;
11453;SDS011;5783;55.174;61.310;2023-06-14T02:26:29;2.20;;;1.97;;
11453;SDS011;5783;55.174;61.310;2023-06-14T02:28:58;2.73;;;2.30;;
11453;SDS011;5783;55.174;61.310;2023-06-14T02:31:28;2.33;;;2.13;;
11453;SDS011;5783;55.174;61.310;2023-06-14T02:33:57;2.80;;;2.27;;
11453;SDS011;5783;55.174;61.310;2023-06-14T02:36:26;3.60;;;2.40;;
11453;SDS011;5783;55.174;61.310;2023-06-14T02:39:15;2.43;;;2.17;;
11453;SDS011;5783;55.174;61.310;2023-06-14T02:41:46;3.40;;;2.20;;
11453;SDS011;5783;55.174;61.310;2023-06-14T02:46:47;2.90;;;2.40;;
11453;SDS011;5783;55.174;61.310;2023-06-14T02:49:16;2.57;;;2.13;;
11453;SDS011;5783;55.174;61.310;2023-06-14T02:51:45;2.10;;;1.90;;
11453;SDS011;5783;55.174;61.310;2023-06-14T02:54:14;2.90;;;2.53;;
11453;SDS011;5783;55.174;61.310;2023-06-14T02:56:43;2.93;;;2.30;;
11453;SDS011;5783;55.174;61.310;2023-06-14T02:59:12;2.60;;;2.03;;
11453;SDS011;5783;55.174;61.310;2023-06-14T03:01:43;2.23;;;2.03;;
11453;SDS011;5783;55.174;61.310;2023-06-14T03:04:12;3.23;;;2.30;;
11453;SDS011;5783;55.174;61.310;2023-06-14T03:06:42;2.40;;;2.10;;
11453;SDS011;5783;55.174;61.310;2023-06-14T03:09:12;3.83;;;2.37;;
11453;SDS011;5783;55.174;61.310;2023-06-14T03:11:41;2.20;;;1.97;;
11453;SDS011;5783;55.174;61.310;2023-06-14T03:14:11;2.63;;;2.30;;
11453;SDS011;5783;55.174;61.310;2023-06-14T03:16:40;3.07;;;2.33;;
11453;SDS011;5783;55.174;61.310;2023-06-14T03:19:09;3.00;;;2.20;;
11453;SDS011;5783;55.174;61.310;2023-06-14T03:21:39;2.30;;;2.10;;
11453;SDS011;5783;55.174;61.310;2023-06-14T03:24:09;3.40;;;2.30;;
11453;SDS011;5783;55.174;61.310;2023-06-14T03:26:39;2.70;;;2.20;;
11453;SDS011;5783;55.174;61.310;2023-06-14T03:29:08;2.90;;;2.10;;
11453;SDS011;5783;55.174;61.310;2023-06-14T03:31:41;2.70;;;2.00;;
11453;SDS011;5783;55.174;61.310;2023-06-14T03:34:28;2.53;;;2.33;;
11453;SDS011;5783;55.174;61.310;2023-06-14T03:36:57;3.40;;;2.20;;
11453;SDS011;5783;55.174;61.310;2023-06-14T03:39:26;2.30;;;2.00;;
11453;SDS011;5783;55.174;61.310;2023-06-14T03:41:55;2.70;;;2.20;;
11453;SDS011;5783;55.174;61.310;2023-06-14T03:44:26;3.20;;;2.40;;
11453;SDS011;5783;55.174;61.310;2023-06-14T03:46:55;2.60;;;2.20;;
11453;SDS011;5783;55.174;61.310;2023-06-14T03:49:25;2.13;;;1.93;;
11453;SDS011;5783;55.174;61.310;2023-06-14T03:51:54;3.57;;;1.90;;
11453;SDS011;5783;55.174;61.310;2023-06-14T03:54:23;2.77;;;2.00;;
11453;SDS011;5783;55.174;61.310;2023-06-14T03:56:53;2.77;;;1.97;;
11453;SDS011;5783;55.174;61.310;2023-06-14T03:59:22;3.83;;;2.20;;
11453;SDS011;5783;55.174;61.310;2023-06-14T04:01:53;2.47;;;2.07;;
11453;SDS011;5783;55.174;61.310;2023-06-14T04:04:23;2.73;;;2.00;;
11453;SDS011;5783;55.174;61.310;2023-06-14T04:06:55;2.97;;;2.17;;
11453;SDS011;5783;55.174;61.310;2023-06-14T04:09:25;2.10;;;1.90;;
11453;SDS011;5783;55.174;61.310;2023-06-14T04:11:54;2.13;;;1.90;;
11453;SDS011;5783;55.174;61.310;2023-06-14T04:14:24;2.77;;;2.20;;
11453;SDS011;5783;55.174;61.310;2023-06-14T04:16:53;2.27;;;1.83;;
11453;SDS011;5783;55.174;61.310;2023-06-14T04:19:22;2.57;;;2.30;;
11453;SDS011;5783;55.174;61.310;2023-06-14T04:21:51;2.20;;;2.00;;
11453;SDS011;5783;55.174;61.310;2023-06-14T04:24:21;3.07;;;2.27;;
11453;SDS011;5783;55.174;61.310;2023-06-14T04:26:52;2.50;;;2.20;;
11453;SDS011;5783;55.174;61.310;2023-06-14T04:29:22;3.20;;;2.17;;
11453;SDS011;5783;55.174;61.310;2023-06-14T04:34:43;3.20;;;2.50;;
11453;SDS011;5783;55.174;61.310;2023-06-14T04:37:13;3.03;;;2.23;;
11453;SDS011;5783;55.174;61.310;2023-06-14T04:39:43;2.67;;;2.30;;
11453;SDS011;5783;55.174;61.310;2023-06-14T04:42:13;5.13;;;2.70;;
11453;SDS011;5783;55.174;61.310;2023-06-14T04:44:42;4.10;;;2.60;;
11453;SDS011;5783;55.174;61.310;2023-06-14T04:47:13;5.00;;;2.67;;
11453;SDS011;5783;55.174;61.310;2023-06-14T04:49:42;3.57;;;2.27;;
11453;SDS011;5783;55.174;61.310;2023-06-14T04:52:12;4.57;;;2.60;;
11453;SDS011;5783;55.174;61.310;2023-06-14T04:54:44;3.67;;;2.53;;
11453;SDS011;5783;55.174;61.310;2023-06-14T04:57:13;5.40;;;2.70;;
11453;SDS011;5783;55.174;61.310;2023-06-14T04:59:43;5.47;;;2.57;;
11453;SDS011;5783;55.174;61.310;2023-06-14T05:02:12;5.40;;;2.40;;
11453;SDS011;5783;55.174;61.310;2023-06-14T05:04:41;5.17;;;2.83;;
11453;SDS011;5783;55.174;61.310;2023-06-14T05:07:12;5.27;;;3.20;;
11453;SDS011;5783;55.174;61.310;2023-06-14T05:09:41;5.67;;;3.17;;
11453;SDS011;5783;55.174;61.310;2023-06-14T05:12:11;4.60;;;3.30;;
11453;SDS011;5783;55.174;61.310;2023-06-14T05:14:42;4.33;;;3.30;;
11453;SDS011;5783;55.174;61.310;2023-06-14T05:17:11;4.90;;;3.10;;
11453;SDS011;5783;55.174;61.310;2023-06-14T05:19:42;5.83;;;3.53;;
11453;SDS011;5783;55.174;61.310;2023-06-14T05:22:12;5.07;;;3.67;;
11453;SDS011;5783;55.174;61.310;2023-06-14T05:24:41;5.67;;;3.73;;
11453;SDS011;5783;55.174;61.310;2023-06-14T05:27:11;6.30;;;4.20;;
11453;SDS011;5783;55.174;61.310;2023-06-14T05:29:40;6.00;;;3.97;;
11453;SDS011;5783;55.174;61.310;2023-06-14T05:32:10;6.63;;;4.20;;
11453;SDS011;5783;55.174;61.310;2023-06-14T05:34:39;6.93;;;3.60;;
11453;SDS011;5783;55.174;61.310;2023-06-14T05:37:08;5.97;;;3.60;;
11453;SDS011;5783;55.174;61.310;2023-06-14T05:39:38;5.07;;;3.33;;
11453;SDS011;5783;55.174;61.310;2023-06-14T05:42:08;4.80;;;3.20;;
11453;SDS011;5783;55.174;61.310;2023-06-14T05:44:37;6.80;;;3.10;;
11453;SDS011;5783;55.174;61.310;2023-06-14T05:47:06;5.77;;;3.63;;
11453;SDS011;5783;55.174;61.310;2023-06-14T05:49:35;4.33;;;3.13;;
11453;SDS011;5783;55.174;61.310;2023-06-14T05:52:04;5.73;;;3.33;;
11453;SDS011;5783;55.174;61.310;2023-06-14T05:54:34;5.13;;;3.97;;
11453;SDS011;5783;55.174;61.310;2023-06-14T05:57:03;6.73;;;3.90;;
11453;SDS011;5783;55.174;61.310;2023-06-14T05:59:33;5.03;;;3.40;;
11453;SDS011;5783;55.174;61.310;2023-06-14T06:02:04;5.00;;;3.40;;
11453;SDS011;5783;55.174;61.310;2023-06-14T06:04:33;8.90;;;4.70;;
11453;SDS011;5783;55.174;61.310;2023-06-14T06:07:02;10.83;;;6.47;;
11453;SDS011;5783;55.174;61.310;2023-06-14T06:09:33;8.03;;;5.00;;
11453;SDS011;5783;55.174;61.310;2023-06-14T06:12:02;6.47;;;4.80;;
11453;SDS011;5783;55.174;61.310;2023-06-14T06:14:33;8.47;;;4.70;;
11453;SDS011;5783;55.174;61.310;2023-06-14T06:17:02;8.27;;;3.60;;
11453;SDS011;5783;55.174;61.310;2023-06-14T06:19:32;8.37;;;6.03;;
11453;SDS011;5783;55.174;61.310;2023-06-14T06:22:01;6.93;;;5.20;;
11453;SDS011;5783;55.174;61.310;2023-06-14T06:24:32;7.17;;;4.97;;
11453;SDS011;5783;55.174;61.310;2023-06-14T06:27:01;7.50;;;4.73;;
11453;SDS011;5783;55.174;61.310;2023-06-14T06:29:32;8.53;;;4.77;;
11453;SDS011;5783;55.174;61.310;2023-06-14T06:32:02;7.30;;;3.73;;
11453;SDS011;5783;55.174;61.310;2023-06-14T06:34:31;5.40;;;3.87;;
11453;SDS011;5783;55.174;61.310;2023-06-14T06:37:01;5.67;;;3.87;;
11453;SDS011;5783;55.174;61.310;2023-06-14T06:39:32;7.50;;;4.10;;
11453;SDS011;5783;55.174;61.310;2023-06-14T06:42:01;6.97;;;4.70;;
11453;SDS011;5783;55.174;61.310;2023-06-14T06:44:31;8.13;;;3.77;;
11453;SDS011;5783;55.174;61.310;2023-06-14T06:47:00;8.17;;;4.47;;
11453;SDS011;5783;55.174;61.310;2023-06-14T06:49:29;7.43;;;4.50;;
11453;SDS011;5783;55.174;61.310;2023-06-14T06:54:48;8.63;;;4.93;;
11453;SDS011;5783;55.174;61.310;2023-06-14T06:57:19;7.00;;;5.23;;
11453;SDS011;5783;55.174;61.310;2023-06-14T06:59:49;6.97;;;6.00;;
11453;SDS011;5783;55.174;61.310;2023-06-14T07:02:18;7.83;;;5.70;;
11453;SDS011;5783;55.174;61.310;2023-06-14T07:04:47;7.80;;;6.17;;
11453;SDS011;5783;55.174;61.310;2023-06-14T07:07:17;7.37;;;5.83;;
11453;SDS011;5783;55.174;61.310;2023-06-14T07:09:46;8.93;;;6.50;;
11453;SDS011;5783;55.174;61.310;2023-06-14T07:12:16;6.93;;;5.43;;
11453;SDS011;5783;55.174;61.310;2023-06-14T07:14:45;7.53;;;6.13;;
11453;SDS011;5783;55.174;61.310;2023-06-14T07:17:14;7.80;;;6.13;;
11453;SDS011;5783;55.174;61.310;2023-06-14T07:19:43;8.57;;;6.13;;
11453;SDS011;5783;55.174;61.310;2023-06-14T07:22:13;8.07;;;6.50;;
11453;SDS011;5783;55.174;61.310;2023-06-14T07:24:42;7.33;;;6.23;;
11453;SDS011;5783;55.174;61.310;2023-06-14T07:27:11;8.37;;;5.63;;
11453;SDS011;5783;55.174;61.310;2023-06-14T07:29:40;7.93;;;5.73;;
11453;SDS011;5783;55.174;61.310;2023-06-14T07:32:09;6.83;;;5.47;;
11453;SDS011;5783;55.174;61.310;2023-06-14T07:34:38;5.87;;;4.83;;
11453;SDS011;5783;55.174;61.310;2023-06-14T07:37:08;6.83;;;5.00;;
11453;SDS011;5783;55.174;61.310;2023-06-14T07:39:37;5.73;;;5.00;;
11453;SDS011;5783;55.174;61.310;2023-06-14T07:42:06;5.20;;;4.70;;
11453;SDS011;5783;55.174;61.310;2023-06-14T07:44:36;6.97;;;5.07;;
11453;SDS011;5783;55.174;61.310;2023-06-14T07:47:05;6.07;;;4.90;;
11453;SDS011;5783;55.174;61.310;2023-06-14T07:49:34;6.57;;;4.40;;
11453;SDS011;5783;55.174;61.310;2023-06-14T07:52:04;4.97;;;4.47;;
11453;SDS011;5783;55.174;61.310;2023-06-14T07:54:33;6.17;;;4.70;;
11453;SDS011;5783;55.174;61.310;2023-06-14T07:57:02;5.33;;;4.60;;
11453;SDS011;5783;55.174;61.310;2023-06-14T07:59:32;5.20;;;4.60;;
11453;SDS011;5783;55.174;61.310;2023-06-14T08:02:01;5.57;;;4.27;;
11453;SDS011;5783;55.174;61.310;2023-06-14T08:04:31;5.37;;;4.13;;
11453;SDS011;5783;55.174;61.310;2023-06-14T08:07:00;5.10;;;4.20;;
11453;SDS011;5783;55.174;61.310;2023-06-14T08:09:29;4.70;;;4.10;;
11453;SDS011;5783;55.174;61.310;2023-06-14T08:11:59;5.30;;;4.60;;
11453;SDS011;5783;55.174;61.310;2023-06-14T08:14:28;5.70;;;4.10;;
11453;SDS011;5783;55.174;61.310;2023-06-14T08:16:57;5.23;;;4.20;;
11453;SDS011;5783;55.174;61.310;2023-06-14T08:19:26;4.33;;;3.87;;
11453;SDS011;5783;55.174;61.310;2023-06-14T08:21:56;5.00;;;4.20;;
11453;SDS011;5783;55.174;61.310;2023-06-14T08:24:25;4.43;;;3.83;;
11453;SDS011;5783;55.174;61.310;2023-06-14T08:26:55;4.83;;;4.00;;
11453;SDS011;5783;55.174;61.310;2023-06-14T08:29:27;4.40;;;3.87;;
11453;SDS011;5783;55.174;61.310;2023-06-14T08:31:56;5.73;;;3.90;;
11453;SDS011;5783;55.174;61.310;2023-06-14T08:34:26;4.63;;;3.90;;
11453;SDS011;5783;55.174;61.310;2023-06-14T08:36:55;4.77;;;3.90;;
11453;SDS011;5783;55.174;61.310;2023-06-14T08:39:25;4.73;;;3.93;;
11453;SDS011;5783;55.174;61.310;2023-06-14T08:41:54;4.43;;;3.83;;
11453;SDS011;5783;55.174;61.310;2023-06-14T08:44:24;4.23;;;3.70;;
11453;SDS011;5783;55.174;61.310;2023-06-14T08:46:54;4.20;;;3.60;;
11453;SDS011;5783;55.174;61.310;2023-06-14T08:49:25;5.80;;;4.43;;
11453;SDS011;5783;55.174;61.310;2023-06-14T08:57:16;4.03;;;3.50;;
11453;SDS011;5783;55.174;61.310;2023-06-14T08:59:46;4.87;;;3.50;;
11453;SDS011;5783;55.174;61.310;2023-06-14T09:02:18;4.37;;;3.40;;
11453;SDS011;5783;55.174;61.310;2023-06-14T09:04:48;3.80;;;3.40;;
11453;SDS011;5783;55.174;61.310;2023-06-14T09:07:17;3.97;;;3.57;;
11453;SDS011;5783;55.174;61.310;2023-06-14T09:09:46;3.77;;;3.30;;
11453;SDS011;5783;55.174;61.310;2023-06-14T09:12:15;3.57;;;3.13;;
11453;SDS011;5783;55.174;61.310;2023-06-14T09:14:45;3.43;;;3.13;;
11453;SDS011;5783;55.174;61.310;2023-06-14T09:17:14;3.60;;;3.20;;
11453;SDS011;5783;55.174;61.310;2023-06-14T09:19:45;3.33;;;3.00;;
11453;SDS011;5783;55.174;61.310;2023-06-14T09:22:15;3.37;;;3.00;;
11453;SDS011;5783;55.174;61.310;2023-06-14T09:24:44;4.33;;;3.37;;
11453;SDS011;5783;55.174;61.310;2023-06-14T09:30:04;3.53;;;2.70;;
11453;SDS011;5783;55.174;61.310;2023-06-14T09:32:53;3.20;;;2.80;;
11453;SDS011;5783;55.174;61.310;2023-06-14T09:35:22;4.20;;;3.30;;
11453;SDS011;5783;55.174;61.310;2023-06-14T09:37:53;3.20;;;2.90;;
11453;SDS011;5783;55.174;61.310;2023-06-14T09:40:24;3.83;;;3.17;;
11453;SDS011;5783;55.174;61.310;2023-06-14T09:42:53;4.20;;;3.40;;
11453;SDS011;5783;55.174;61.310;2023-06-14T09:45:23;3.70;;;3.40;;
11453;SDS011;5783;55.174;61.310;2023-06-14T09:47:55;3.97;;;3.27;;
11453;SDS011;5783;55.174;61.310;2023-06-14T09:50:26;3.30;;;3.00;;
11453;SDS011;5783;55.174;61.310;2023-06-14T09:52:56;3.67;;;3.33;;
11453;SDS011;5783;55.174;61.310;2023-06-14T09:55:27;4.40;;;3.10;;
11453;SDS011;5783;55.174;61.310;2023-06-14T09:57:59;4.17;;;3.47;;
11453;SDS011;5783;55.174;61.310;2023-06-14T10:00:32;3.33;;;3.03;;
11453;SDS011;5783;55.174;61.310;2023-06-14T10:03:36;3.43;;;3.10;;
11453;SDS011;5783;55.174;61.310;2023-06-14T10:05:53;4.53;;;3.00;;
11453;SDS011;5783;55.174;61.310;2023-06-14T10:08:27;5.40;;;3.17;;
11453;SDS011;5783;55.174;61.310;2023-06-14T10:10:59;3.60;;;3.07;;
11453;SDS011;5783;55.174;61.310;2023-06-14T10:13:29;4.27;;;3.03;;
11453;SDS011;5783;55.174;61.310;2023-06-14T10:25:12;3.10;;;2.67;;
11453;SDS011;5783;55.174;61.310;2023-06-14T10:36:31;3.17;;;2.70;;
11453;SDS011;5783;55.174;61.310;2023-06-14T10:39:03;2.93;;;2.63;;
11453;SDS011;5783;55.174;61.310;2023-06-14T10:50:05;4.23;;;2.50;;
11453;SDS011;5783;55.174;61.310;2023-06-14T10:52:55;3.43;;;2.47;;
11453;SDS011;5783;55.174;61.310;2023-06-14T10:55:24;4.07;;;2.67;;
11453;SDS011;5783;55.174;61.310;2023-06-14T10:57:54;3.50;;;2.67;;
11453;SDS011;5783;55.174;61.310;2023-06-14T11:00:25;3.07;;;2.77;;
11453;SDS011;5783;55.174;61.310;2023-06-14T11:06:11;4.17;;;2.60;;
11453;SDS011;5783;55.174;61.310;2023-06-14T11:11:46;3.57;;;2.57;;
11453;SDS011;5783;55.174;61.310;2023-06-14T11:14:17;2.83;;;2.57;;
11453;SDS011;5783;55.174;61.310;2023-06-14T11:19:35;3.23;;;2.33;;
11453;SDS011;5783;55.174;61.310;2023-06-14T11:22:04;4.77;;;2.60;;
11453;SDS011;5783;55.174;61.310;2023-06-14T11:24:33;3.83;;;2.60;;
11453;SDS011;5783;55.174;61.310;2023-06-14T11:27:02;3.57;;;2.60;;
11453;SDS011;5783;55.174;61.310;2023-06-14T11:29:32;4.03;;;2.67;;
11453;SDS011;5783;55.174;61.310;2023-06-14T11:32:01;3.47;;;2.80;;
11453;SDS011;5783;55.174;61.310;2023-06-14T11:34:30;3.97;;;2.60;;
11453;SDS011;5783;55.174;61.310;2023-06-14T11:36:59;3.60;;;2.80;;
11453;SDS011;5783;55.174;61.310;2023-06-14T11:39:28;3.70;;;2.80;;
11453;SDS011;5783;55.174;61.310;2023-06-14T11:41:58;4.93;;;2.70;;
11453;SDS011;5783;55.174;61.310;2023-06-14T11:44:27;4.70;;;2.63;;
11453;SDS011;5783;55.174;61.310;2023-06-14T11:46:56;2.90;;;2.60;;
11453;SDS011;5783;55.174;61.310;2023-06-14T11:49:25;3.63;;;2.80;;
11453;SDS011;5783;55.174;61.310;2023-06-14T11:51:54;2.77;;;2.40;;
11453;SDS011;5783;55.174;61.310;2023-06-14T11:54:24;4.20;;;3.00;;
11453;SDS011;5783;55.174;61.310;2023-06-14T11:56:53;4.97;;;3.03;;
11453;SDS011;5783;55.174;61.310;2023-06-14T11:59:23;5.30;;;3.07;;
11453;SDS011;5783;55.174;61.310;2023-06-14T12:01:54;3.30;;;2.60;;
11453;SDS011;5783;55.174;61.310;2023-06-14T12:04:24;3.90;;;2.80;;
11453;SDS011;5783;55.174;61.310;2023-06-14T12:06:55;3.50;;;2.70;;
11453;SDS011;5783;55.174;61.310;2023-06-14T12:09:24;3.40;;;2.70;;
11453;SDS011;5783;55.174;61.310;2023-06-14T12:14:43;4.60;;;2.87;;
11453;SDS011;5783;55.174;61.310;2023-06-14T12:17:12;3.00;;;2.60;;
11453;SDS011;5783;55.174;61.310;2023-06-14T12:19:43;3.80;;;2.63;;
11453;SDS011;5783;55.174;61.310;2023-06-14T12:22:14;3.23;;;2.80;;
11453;SDS011;5783;55.174;61.310;2023-06-14T12:24:44;4.30;;;2.80;;
11453;SDS011;5783;55.174;61.310;2023-06-14T12:27:14;4.60;;;2.80;;
11453;SDS011;5783;55.174;61.310;2023-06-14T12:29:46;3.47;;;2.77;;
11453;SDS011;5783;55.174;61.310;2023-06-14T12:32:16;4.30;;;3.00;;
11453;SDS011;5783;55.174;61.310;2023-06-14T12:34:45;5.80;;;2.80;;
11453;SDS011;5783;55.174;61.310;2023-06-14T12:37:15;3.67;;;2.77;;
11453;SDS011;5783;55.174;61.310;2023-06-14T12:39:44;3.47;;;2.90;;
11453;SDS011;5783;55.174;61.310;2023-06-14T12:42:13;3.90;;;3.17;;
11453;SDS011;5783;55.174;61.310;2023-06-14T12:44:43;5.07;;;3.17;;
11453;SDS011;5783;55.174;61.310;2023-06-14T12:47:12;3.90;;;3.30;;
11453;SDS011;5783;55.174;61.310;2023-06-14T12:49:41;3.40;;;2.93;;
11453;SDS011;5783;55.174;61.310;2023-06-14T12:52:11;4.30;;;3.53;;
11453;SDS011;5783;55.174;61.310;2023-06-14T12:54:40;3.00;;;2.70;;
11453;SDS011;5783;55.174;61.310;2023-06-14T12:57:09;4.00;;;3.30;;
11453;SDS011;5783;55.174;61.310;2023-06-14T12:59:40;3.70;;;3.00;;
11453;SDS011;5783;55.174;61.310;2023-06-14T13:04:58;4.63;;;3.30;;
11453;SDS011;5783;55.174;61.310;2023-06-14T13:07:28;6.00;;;3.00;;
11453;SDS011;5783;55.174;61.310;2023-06-14T13:09:59;5.37;;;3.10;;
11453;SDS011;5783;55.174;61.310;2023-06-14T13:12:29;6.43;;;3.40;;
11453;SDS011;5783;55.174;61.310;2023-06-14T13:14:59;4.70;;;3.53;;
11453;SDS011;5783;55.174;61.310;2023-06-14T13:17:29;4.10;;;3.40;;
11453;SDS011;5783;55.174;61.310;2023-06-14T13:19:59;5.20;;;3.70;;
11453;SDS011;5783;55.174;61.310;2023-06-14T13:22:30;3.87;;;3.40;;
11453;SDS011;5783;55.174;61.310;2023-06-14T13:24:59;4.10;;;3.67;;
11453;SDS011;5783;55.174;61.310;2023-06-14T13:27:29;4.87;;;3.60;;
11453;SDS011;5783;55.174;61.310;2023-06-14T13:29:58;5.93;;;3.27;;
11453;SDS011;5783;55.174;61.310;2023-06-14T13:32:27;5.00;;;3.20;;
11453;SDS011;5783;55.174;61.310;2023-06-14T13:34:56;5.83;;;3.00;;
11453;SDS011;5783;55.174;61.310;2023-06-14T13:37:25;4.10;;;3.27;;
11453;SDS011;5783;55.174;61.310;2023-06-14T13:39:56;3.73;;;3.00;;
11453;SDS011;5783;55.174;61.310;2023-06-14T13:42:25;3.60;;;2.80;;
11453;SDS011;5783;55.174;61.310;2023-06-14T13:44:55;3.87;;;2.60;;
11453;SDS011;5783;55.174;61.310;2023-06-14T13:47:25;4.20;;;2.80;;
11453;SDS011;5783;55.174;61.310;2023-06-14T13:49:54;3.70;;;2.57;;
11453;SDS011;5783;55.174;61.310;2023-06-14T13:52:24;5.27;;;2.60;;
11453;SDS011;5783;55.174;61.310;2023-06-14T13:54:53;3.00;;;2.67;;
11453;SDS011;5783;55.174;61.310;2023-06-14T13:57:23;3.70;;;2.90;;
11453;SDS011;5783;55.174;61.310;2023-06-14T13:59:52;3.37;;;2.70;;
11453;SDS011;5783;55.174;61.310;2023-06-14T14:02:21;3.90;;;2.70;;
11453;SDS011;5783;55.174;61.310;2023-06-14T14:04:50;3.13;;;2.70;;
11453;SDS011;5783;55.174;61.310;2023-06-14T14:07:20;3.33;;;2.90;;
11453;SDS011;5783;55.174;61.310;2023-06-14T14:09:49;3.33;;;2.80;;
11453;SDS011;5783;55.174;61.310;2023-06-14T14:12:19;4.73;;;2.90;;
11453;SDS011;5783;55.174;61.310;2023-06-14T14:14:49;2.83;;;2.53;;
11453;SDS011;5783;55.174;61.310;2023-06-14T14:17:18;4.30;;;2.87;;
11453;SDS011;5783;55.174;61.310;2023-06-14T14:19:47;3.20;;;2.90;;
11453;SDS011;5783;55.174;61.310;2023-06-14T14:22:17;3.43;;;2.80;;
11453;SDS011;5783;55.174;61.310;2023-06-14T14:24:46;4.23;;;2.97;;
11453;SDS011;5783;55.174;61.310;2023-06-14T14:27:15;4.83;;;3.23;;
11453;SDS011;5783;55.174;61.310;2023-06-14T14:29:45;3.00;;;2.70;;
11453;SDS011;5783;55.174;61.310;2023-06-14T14:32:14;3.97;;;3.03;;
11453;SDS011;5783;55.174;61.310;2023-06-14T14:34:43;3.10;;;2.80;;
11453;SDS011;5783;55.174;61.310;2023-06-14T14:37:12;3.17;;;2.87;;
11453;SDS011;5783;55.174;61.310;2023-06-14T14:39:43;4.27;;;2.60;;
11453;SDS011;5783;55.174;61.310;2023-06-14T14:42:14;3.80;;;2.90;;
11453;SDS011;5783;55.174;61.310;2023-06-14T14:44:44;3.33;;;2.60;;
11453;SDS011;5783;55.174;61.310;2023-06-14T14:47:13;3.40;;;3.10;;
11453;SDS011;5783;55.174;61.310;2023-06-14T14:49:42;3.47;;;2.80;;
11453;SDS011;5783;55.174;61.310;2023-06-14T14:52:11;3.50;;;3.00;;
11453;SDS011;5783;55.174;61.310;2023-06-14T14:54:40;4.40;;;2.77;;
11453;SDS011;5783;55.174;61.310;2023-06-14T14:57:09;5.57;;;3.40;;
11453;SDS011;5783;55.174;61.310;2023-06-14T14:59:39;3.37;;;2.80;;
11453;SDS011;5783;55.174;61.310;2023-06-14T15:02:08;5.30;;;3.13;;
11453;SDS011;5783;55.174;61.310;2023-06-14T15:04:38;3.30;;;3.00;;
11453;SDS011;5783;55.174;61.310;2023-06-14T15:07:07;3.37;;;2.67;;
11453;SDS011;5783;55.174;61.310;2023-06-14T15:09:36;4.77;;;2.80;;
11453;SDS011;5783;55.174;61.310;2023-06-14T15:12:07;3.03;;;2.73;;
11453;SDS011;5783;55.174;61.310;2023-06-14T15:14:37;3.77;;;3.13;;
11453;SDS011;5783;55.174;61.310;2023-06-14T15:17:06;3.50;;;2.80;;
11453;SDS011;5783;55.174;61.310;2023-06-14T15:19:36;3.33;;;2.80;;
11453;SDS011;5783;55.174;61.310;2023-06-14T15:22:05;3.93;;;2.50;;
11453;SDS011;5783;55.174;61.310;2023-06-14T15:24:34;3.63;;;3.03;;
11453;SDS011;5783;55.174;61.310;2023-06-14T15:27:03;3.37;;;3.00;;
11453;SDS011;5783;55.174;61.310;2023-06-14T15:29:33;3.00;;;2.70;;
11453;SDS011;5783;55.174;61.310;2023-06-14T15:32:02;2.97;;;2.67;;
11453;SDS011;5783;55.174;61.310;2023-06-14T15:34:32;3.07;;;2.67;;
11453;SDS011;5783;55.174;61.310;2023-06-14T15:37:02;4.60;;;2.87;;
11453;SDS011;5783;55.174;61.310;2023-06-14T15:39:31;4.47;;;2.70;;
11453;SDS011;5783;55.174;61.310;2023-06-14T15:42:00;3.03;;;2.73;;
11453;SDS011;5783;55.174;61.310;2023-06-14T15:44:31;3.83;;;2.80;;
11453;SDS011;5783;55.174;61.310;2023-06-14T15:47:02;3.03;;;2.73;;
11453;SDS011;5783;55.174;61.310;2023-06-14T15:49:31;3.33;;;2.60;;
11453;SDS011;5783;55.174;61.310;2023-06-14T15:52:00;2.83;;;2.57;;
11453;SDS011;5783;55.174;61.310;2023-06-14T15:54:29;4.93;;;3.00;;
11453;SDS011;5783;55.174;61.310;2023-06-14T15:56:59;3.53;;;2.70;;
11453;SDS011;5783;55.174;61.310;2023-06-14T15:59:28;4.13;;;2.70;;
11453;SDS011;5783;55.174;61.310;2023-06-14T16:01:57;3.50;;;2.80;;
11453;SDS011;5783;55.174;61.310;2023-06-14T16:04:27;3.93;;;3.07;;